Time;durP1;ratioP1;P1;durP2;ratioP2;P2;SDS_P1;SDS_P2;PMS_P1;PMS_P2;Temp;Humidity;BMP_temperature;BMP_pressure;BME280_temperature;BME280_humidity;BME280_pressure;Samples;Min_cycle;Max_cycle;Signal;HPM_P1;HPM_P2
2021/11/06 00:01:40;;;;;;;11.77;7.18;;;26.20;97.30;;;;;;5070137;28;21905;-78
2021/11/06 00:04:07;;;;;;;8.75;5.60;;;26.40;98.30;;;;;;5080510;28;20563;-78
2021/11/06 00:06:34;;;;;;;10.32;5.75;;;26.90;97.90;;;;;;5081907;28;20032;-81
2021/11/06 00:09:03;;;;;;;9.98;5.68;;;27.20;96.70;;;;;;5080042;28;20028;-77
2021/11/06 00:11:31;;;;;;;6.13;4.28;;;27.20;95.70;;;;;;5078029;28;20030;-77
2021/11/06 00:13:58;;;;;;;8.68;5.63;;;27.00;95.80;;;;;;5081491;28;20043;-80
2021/11/06 00:16:26;;;;;;;8.70;5.07;;;26.70;96.00;;;;;;5078260;28;20490;-78
2021/11/06 00:18:53;;;;;;;5.32;4.10;;;26.90;96.40;;;;;;5081427;28;20050;-82
2021/11/06 00:21:21;;;;;;;7.43;4.90;;;26.90;95.10;;;;;;5062630;28;21915;-79
2021/11/06 00:23:48;;;;;;;6.65;4.38;;;27.00;94.60;;;;;;5090229;28;20085;-81
2021/11/06 00:26:16;;;;;;;7.10;4.13;;;27.00;95.30;;;;;;5081602;28;20032;-79
2021/11/06 00:28:43;;;;;;;5.72;3.92;;;27.30;94.80;;;;;;5085472;28;20131;-76
2021/11/06 00:31:10;;;;;;;4.85;3.50;;;27.80;93.80;;;;;;5083402;28;20028;-74
2021/11/06 00:33:38;;;;;;;5.75;3.70;;;28.00;93.00;;;;;;5077443;28;20043;-73
2021/11/06 00:36:05;;;;;;;5.28;3.33;;;27.90;93.10;;;;;;5086600;28;20109;-77
2021/11/06 00:38:32;;;;;;;4.88;3.60;;;27.90;93.00;;;;;;5085081;28;20032;-79
2021/11/06 00:41:00;;;;;;;3.50;2.33;;;28.10;93.20;;;;;;5085192;28;20031;-79
2021/11/06 00:43:27;;;;;;;5.50;2.80;;;28.10;91.80;;;;;;5088307;28;20027;-80
2021/11/06 00:45:55;;;;;;;5.72;2.55;;;28.10;91.00;;;;;;5089354;28;20030;-80
2021/11/06 00:48:22;;;;;;;5.18;2.55;;;28.10;91.20;;;;;;5083421;28;20040;-72
2021/11/06 00:50:49;;;;;;;3.65;2.80;;;28.10;90.20;;;;;;5085824;28;20051;-78
2021/11/06 00:53:17;;;;;;;3.25;2.22;;;28.00;91.50;;;;;;5083721;28;20070;-79
2021/11/06 00:55:44;;;;;;;6.15;3.15;;;28.00;90.10;;;;;;5082536;28;20473;-77
2021/11/06 00:58:11;;;;;;;3.50;2.22;;;28.10;90.70;;;;;;5079982;28;20074;-81
2021/11/06 01:00:39;;;;;;;3.45;2.22;;;28.20;91.40;;;;;;5058947;28;20020;-79
2021/11/06 01:03:06;;;;;;;4.28;2.40;;;28.50;90.40;;;;;;5083192;28;20031;-79
2021/11/06 01:05:34;;;;;;;3.78;2.10;;;28.60;89.90;;;;;;5083124;28;20387;-81
2021/11/06 01:08:01;;;;;;;2.72;1.50;;;28.40;87.50;;;;;;5088459;28;20059;-76
2021/11/06 01:10:29;;;;;;;3.20;2.72;;;28.30;89.50;;;;;;5082964;28;20162;-74
2021/11/06 01:12:57;;;;;;;1.95;1.50;;;28.40;87.20;;;;;;5081742;28;20137;-76
2021/11/06 01:15:24;;;;;;;1.70;1.30;;;28.50;87.80;;;;;;5084119;28;20030;-79
2021/11/06 01:17:52;;;;;;;1.80;1.65;;;28.60;85.90;;;;;;5081600;28;20020;-77
2021/11/06 01:20:19;;;;;;;1.67;1.23;;;28.70;86.30;;;;;;5083130;28;20023;-78
2021/11/06 01:22:47;;;;;;;1.92;1.10;;;28.70;83.70;;;;;;5077733;28;20028;-77
2021/11/06 01:25:15;;;;;;;2.13;1.70;;;28.70;85.80;;;;;;5081695;28;20028;-76
2021/11/06 01:27:44;;;;;;;3.75;1.45;;;28.60;81.30;;;;;;5079869;28;20162;-78
2021/11/06 01:30:12;;;;;;;2.45;0.75;;;28.80;85.30;;;;;;5082578;28;20032;-75
2021/11/06 01:32:40;;;;;;;1.52;1.30;;;29.00;80.00;;;;;;5083108;28;20045;-75
2021/11/06 01:35:09;;;;;;;2.47;1.23;;;29.20;82.80;;;;;;5080990;28;20052;-74
2021/11/06 01:37:37;;;;;;;1.90;1.42;;;29.70;82.50;;;;;;5084943;28;20016;-73
2021/11/06 01:40:10;;;;;;;1.77;1.33;;;30.00;80.60;;;;;;5084963;28;20028;-78
2021/11/06 01:42:39;;;;;;;2.72;1.42;;;30.10;80.10;;;;;;5084529;28;20024;-79
2021/11/06 01:45:08;;;;;;;2.03;1.15;;;30.00;77.00;;;;;;5082490;28;20024;-72
2021/11/06 01:47:36;;;;;;;1.20;0.90;;;29.80;77.10;;;;;;5082096;28;20505;-73
2021/11/06 01:50:04;;;;;;;0.80;0.70;;;29.60;74.20;;;;;;5081229;28;20035;-70
2021/11/06 01:52:31;;;;;;;1.52;0.80;;;29.70;76.70;;;;;;5078115;28;20039;-72
2021/11/06 01:54:59;;;;;;;1.58;1.10;;;29.80;73.30;;;;;;5078813;28;20360;-75
2021/11/06 01:57:29;;;;;;;1.80;0.82;;;29.60;74.20;;;;;;5060766;28;20131;-72
2021/11/06 01:59:56;;;;;;;1.08;0.80;;;29.60;73.00;;;;;;5079391;28;20050;-71
2021/11/06 02:02:24;;;;;;;1.30;0.70;;;29.60;74.20;;;;;;5077866;28;20028;-75
2021/11/06 02:04:51;;;;;;;1.35;0.95;;;29.50;72.20;;;;;;5080212;28;20024;-72
2021/11/06 02:07:19;;;;;;;1.60;1.20;;;29.80;73.80;;;;;;5080049;28;20431;-75
2021/11/06 02:09:47;;;;;;;1.25;1.00;;;30.30;73.40;;;;;;5084320;28;20702;-72
2021/11/06 02:12:14;;;;;;;1.23;0.70;;;30.60;71.50;;;;;;5079766;28;20032;-73
2021/11/06 02:14:41;;;;;;;1.13;0.80;;;30.70;72.70;;;;;;5082252;28;20155;-75
2021/11/06 02:17:09;;;;;;;2.28;1.33;;;30.50;70.60;;;;;;5081062;28;20024;-75
2021/11/06 02:19:36;;;;;;;1.20;0.93;;;30.60;71.40;;;;;;5078974;28;20025;-73
2021/11/06 02:22:04;;;;;;;1.42;0.90;;;30.70;72.00;;;;;;5083098;28;20089;-75
2021/11/06 02:24:31;;;;;;;1.98;0.95;;;30.60;72.20;;;;;;5089762;28;20031;-73
2021/11/06 02:26:59;;;;;;;0.90;0.50;;;30.80;72.00;;;;;;5085414;28;20067;-75
2021/11/06 02:29:26;;;;;;;2.35;0.85;;;30.90;70.90;;;;;;5093486;28;20119;-74
2021/11/06 02:31:53;;;;;;;1.15;0.90;;;31.10;70.10;;;;;;5086012;28;20366;-69
2021/11/06 02:34:21;;;;;;;1.52;0.70;;;31.10;70.80;;;;;;5087606;28;20100;-76
2021/11/06 02:36:48;;;;;;;1.58;1.13;;;31.20;69.80;;;;;;5075847;28;20031;-79
2021/11/06 02:39:15;;;;;;;1.10;0.77;;;31.40;69.70;;;;;;5084812;28;20020;-72
2021/11/06 02:41:44;;;;;;;1.30;0.93;;;31.20;68.40;;;;;;5080748;28;20102;-77
2021/11/06 02:44:14;;;;;;;0.75;0.60;;;31.10;70.70;;;;;;5080488;28;20107;-72
2021/11/06 02:46:42;;;;;;;1.08;0.77;;;31.00;70.20;;;;;;5079810;28;20036;-71
2021/11/06 02:49:10;;;;;;;1.50;1.23;;;31.10;69.70;;;;;;5061399;28;20031;-72
2021/11/06 02:51:37;;;;;;;1.48;0.93;;;31.20;70.60;;;;;;5082635;28;20032;-73
2021/11/06 02:54:05;;;;;;;1.10;0.77;;;31.40;70.10;;;;;;5083234;28;20064;-73
2021/11/06 02:56:32;;;;;;;1.30;0.90;;;31.50;71.80;;;;;;5064418;28;20020;-70
2021/11/06 02:59:00;;;;;;;1.98;1.23;;;31.60;68.70;;;;;;5078234;28;20043;-70
2021/11/06 03:01:28;;;;;;;1.38;0.65;;;31.20;69.30;;;;;;5065393;28;20490;-73
2021/11/06 03:03:55;;;;;;;0.63;0.50;;;31.30;71.10;;;;;;5079947;28;20078;-74
2021/11/06 03:06:23;;;;;;;1.15;0.57;;;31.80;73.00;;;;;;5080318;28;20052;-75
2021/11/06 03:08:50;;;;;;;1.45;0.80;;;32.00;68.20;;;;;;5081018;28;20428;-73
2021/11/06 03:11:17;;;;;;;1.10;0.70;;;32.00;68.90;;;;;;5075398;28;20076;-72
2021/11/06 03:13:47;;;;;;;0.88;0.50;;;31.70;67.50;;;;;;5083872;28;20536;-74
2021/11/06 03:16:15;;;;;;;0.70;0.60;;;31.40;68.90;;;;;;5081259;28;20043;-72
2021/11/06 03:18:42;;;;;;;2.20;0.60;;;31.10;69.20;;;;;;5083816;28;20397;-74
2021/11/06 03:21:10;;;;;;;0.80;0.63;;;30.90;67.70;;;;;;5074229;28;20028;-74
2021/11/06 03:23:37;;;;;;;1.00;0.70;;;30.80;70.80;;;;;;5081051;28;20047;-76
2021/11/06 03:26:05;;;;;;;1.10;0.60;;;31.00;68.50;;;;;;5078955;28;20036;-74
2021/11/06 03:28:32;;;;;;;0.95;0.68;;;31.20;68.50;;;;;;5080965;28;20035;-74
2021/11/06 03:30:59;;;;;;;3.22;0.80;;;31.50;68.80;;;;;;5074034;28;20024;-72
2021/11/06 03:33:27;;;;;;;1.13;0.70;;;31.70;69.40;;;;;;5076313;28;20047;-75
2021/11/06 03:35:54;;;;;;;0.82;0.50;;;31.80;67.70;;;;;;5082066;28;20039;-71
2021/11/06 03:38:22;;;;;;;0.60;0.40;;;31.80;67.70;;;;;;5082037;28;20044;-76
2021/11/06 03:40:50;;;;;;;0.90;0.60;;;32.10;67.60;;;;;;5081065;28;20039;-78
2021/11/06 03:43:17;;;;;;;1.20;0.68;;;31.70;67.80;;;;;;5079767;28;20028;-70
2021/11/06 03:45:45;;;;;;;0.80;0.50;;;31.00;68.80;;;;;;5088694;28;20020;-71
2021/11/06 03:48:13;;;;;;;2.00;0.73;;;30.80;69.30;;;;;;5078104;28;20123;-70
2021/11/06 03:50:40;;;;;;;0.95;0.65;;;30.80;69.20;;;;;;5080466;28;20058;-71
2021/11/06 03:53:07;;;;;;;0.98;0.80;;;31.10;70.30;;;;;;5079670;28;20383;-77
2021/11/06 03:55:35;;;;;;;0.88;0.60;;;30.80;68.30;;;;;;5079141;28;20103;-74
2021/11/06 03:58:02;;;;;;;0.80;0.70;;;30.40;69.30;;;;;;5082309;28;20409;-76
2021/11/06 04:00:31;;;;;;;1.35;1.25;;;29.90;68.90;;;;;;5085941;28;20025;-75
2021/11/06 04:02:58;;;;;;;0.80;0.55;;;29.80;69.60;;;;;;5085716;28;20085;-75
2021/11/06 04:05:27;;;;;;;1.13;0.93;;;30.40;70.70;;;;;;5079665;28;20123;-73
2021/11/06 04:07:54;;;;;;;1.00;0.82;;;30.90;69.20;;;;;;5068695;28;20111;-71
2021/11/06 04:10:22;;;;;;;1.02;0.60;;;31.30;68.80;;;;;;5083825;28;20040;-71
2021/11/06 04:12:49;;;;;;;0.80;0.70;;;31.40;67.50;;;;;;5083291;28;20081;-72
2021/11/06 04:15:17;;;;;;;0.80;0.60;;;30.70;67.90;;;;;;5079308;28;20028;-74
2021/11/06 04:17:45;;;;;;;1.17;0.60;;;30.30;68.70;;;;;;5080924;28;20360;-72
2021/11/06 04:20:13;;;;;;;1.02;0.73;;;30.10;69.70;;;;;;5085130;28;20023;-73
2021/11/06 04:22:40;;;;;;;0.90;0.75;;;30.10;69.30;;;;;;5084838;28;20028;-74
2021/11/06 04:25:08;;;;;;;2.45;0.70;;;30.00;68.50;;;;;;5083656;28;20043;-72
2021/11/06 04:27:35;;;;;;;0.90;0.77;;;30.50;69.80;;;;;;5081461;28;20111;-74
2021/11/06 04:30:08;;;;;;;0.80;0.55;;;30.80;68.40;;;;;;5082341;28;20501;-75
2021/11/06 04:32:35;;;;;;;0.90;0.70;;;31.00;68.00;;;;;;5062010;28;20262;-70
2021/11/06 04:35:03;;;;;;;0.95;0.63;;;31.20;66.60;;;;;;5084360;28;20016;-70
2021/11/06 04:37:30;;;;;;;0.80;0.60;;;31.10;66.20;;;;;;5079597;28;20129;-70
2021/11/06 04:39:58;;;;;;;1.35;0.75;;;30.80;65.70;;;;;;5081731;28;20533;-73
2021/11/06 04:42:26;;;;;;;1.10;0.65;;;30.70;66.50;;;;;;5078367;28;21792;-70
2021/11/06 04:44:53;;;;;;;0.98;0.80;;;30.80;65.50;;;;;;5087176;28;20043;-71
2021/11/06 04:47:21;;;;;;;1.73;0.52;;;30.90;67.80;;;;;;5090908;28;20448;-72
2021/11/06 04:49:48;;;;;;;2.97;0.70;;;30.80;66.60;;;;;;5077423;28;20502;-70
2021/11/06 04:52:16;;;;;;;2.88;0.70;;;30.60;66.20;;;;;;5082639;28;20581;-73
2021/11/06 04:54:43;;;;;;;1.15;0.43;;;30.40;66.90;;;;;;5086331;28;20044;-71
2021/11/06 04:57:11;;;;;;;3.03;0.50;;;30.40;71.40;;;;;;5081492;28;20051;-72
2021/11/06 04:59:38;;;;;;;3.47;0.68;;;30.70;72.00;;;;;;5085203;28;20028;-72
2021/11/06 05:02:06;;;;;;;1.80;0.52;;;30.90;72.50;;;;;;5079027;28;20042;-72
2021/11/06 05:04:34;;;;;;;1.80;0.30;;;30.80;72.70;;;;;;5082415;28;20016;-73
2021/11/06 05:07:02;;;;;;;2.53;0.50;;;30.50;73.20;;;;;;5076105;28;20067;-72
2021/11/06 05:09:29;;;;;;;1.40;0.50;;;30.00;73.80;;;;;;5077265;28;20601;-72
2021/11/06 05:11:56;;;;;;;1.30;0.40;;;29.70;75.10;;;;;;5084219;28;20032;-73
2021/11/06 05:14:24;;;;;;;1.70;0.68;;;29.30;76.30;;;;;;5090492;28;20031;-73
2021/11/06 05:16:51;;;;;;;1.63;0.70;;;29.00;77.20;;;;;;5085459;28;20115;-73
2021/11/06 05:19:19;;;;;;;3.03;0.47;;;28.70;77.90;;;;;;5079955;28;20060;-73
2021/11/06 05:21:46;;;;;;;2.15;0.60;;;28.60;78.70;;;;;;5079834;28;20028;-74
2021/11/06 05:24:14;;;;;;;1.85;0.40;;;28.50;78.90;;;;;;5082849;28;20060;-72
2021/11/06 05:26:41;;;;;;;1.40;0.40;;;28.40;79.50;;;;;;5080259;28;20037;-73
2021/11/06 05:29:10;;;;;;;0.93;0.30;;;28.30;79.60;;;;;;5081981;28;20154;-72
2021/11/06 05:31:39;;;;;;;1.05;0.40;;;28.30;79.40;;;;;;5083119;28;20024;-72
2021/11/06 05:34:10;;;;;;;3.88;0.75;;;28.40;79.80;;;;;;5073861;28;20047;-72
2021/11/06 05:36:37;;;;;;;2.53;0.60;;;28.30;79.80;;;;;;5081519;28;20032;-75
2021/11/06 05:39:05;;;;;;;1.23;0.60;;;28.20;80.40;;;;;;5083851;28;20070;-72
2021/11/06 05:41:33;;;;;;;3.13;0.70;;;28.10;80.60;;;;;;5080196;28;20105;-71
2021/11/06 05:44:01;;;;;;;7.07;1.10;;;27.90;81.40;;;;;;5077421;28;20040;-71
2021/11/06 05:46:28;;;;;;;1.95;0.47;;;28.10;81.30;;;;;;5080085;28;20036;-72
2021/11/06 05:48:56;;;;;;;3.53;0.80;;;28.20;81.10;;;;;;5082191;28;20028;-74
2021/11/06 05:51:24;;;;;;;3.25;0.95;;;28.10;81.00;;;;;;5084931;28;20038;-74
2021/11/06 05:53:52;;;;;;;2.55;0.40;;;27.90;81.50;;;;;;5085098;28;20024;-73
2021/11/06 05:56:19;;;;;;;3.33;0.50;;;27.90;81.70;;;;;;5082610;28;20434;-75
2021/11/06 05:58:47;;;;;;;3.03;0.40;;;27.90;81.60;;;;;;5082510;28;20024;-72
2021/11/06 06:01:15;;;;;;;2.08;0.52;;;28.00;81.60;;;;;;5077375;28;20069;-74
2021/11/06 06:03:43;;;;;;;1.75;0.73;;;27.70;81.50;;;;;;5083966;28;20028;-74
2021/11/06 06:06:10;;;;;;;3.33;0.70;;;27.40;83.00;;;;;;5081656;28;20016;-72
2021/11/06 06:08:37;;;;;;;2.60;0.50;;;27.30;83.40;;;;;;5086499;28;20040;-71
2021/11/06 06:11:05;;;;;;;3.45;0.52;;;27.30;83.40;;;;;;5083367;28;20409;-72
2021/11/06 06:13:32;;;;;;;1.40;0.35;;;27.20;83.60;;;;;;5077496;28;20028;-75
2021/11/06 06:15:59;;;;;;;3.65;1.13;;;27.10;84.10;;;;;;5059987;28;21461;-75
2021/11/06 06:18:27;;;;;;;1.75;0.70;;;26.90;84.80;;;;;;5082164;28;20425;-74
2021/11/06 06:20:55;;;;;;;2.55;0.57;;;26.90;85.10;;;;;;5079705;28;20555;-77
2021/11/06 06:23:22;;;;;;;4.90;0.50;;;26.90;85.30;;;;;;5082938;28;20070;-76
2021/11/06 06:25:50;;;;;;;4.78;0.57;;;26.80;85.70;;;;;;5078228;28;20028;-74
2021/11/06 06:28:17;;;;;;;2.65;0.50;;;26.70;85.90;;;;;;5077705;28;20103;-75
2021/11/06 06:30:44;;;;;;;1.65;0.57;;;26.60;86.30;;;;;;5079029;28;20035;-75
2021/11/06 06:33:12;;;;;;;6.25;0.57;;;26.70;86.60;;;;;;5080304;28;20053;-74
2021/11/06 06:35:39;;;;;;;2.42;0.98;;;26.70;86.60;;;;;;5083935;28;20676;-77
2021/11/06 06:38:07;;;;;;;1.83;0.50;;;26.60;86.60;;;;;;5081763;28;20040;-75
2021/11/06 06:40:34;;;;;;;1.75;0.38;;;26.60;86.50;;;;;;5084048;28;20040;-76
2021/11/06 06:43:02;;;;;;;3.90;0.60;;;26.60;87.00;;;;;;5088122;28;20380;-76
2021/11/06 06:45:32;;;;;;;5.53;1.05;;;26.50;86.80;;;;;;5078546;28;20051;-73
2021/11/06 06:47:59;;;;;;;6.65;1.08;;;26.40;87.00;;;;;;5084937;28;20047;-74
2021/11/06 06:50:27;;;;;;;2.53;1.10;;;26.30;87.60;;;;;;5091305;28;20074;-73
2021/11/06 06:52:54;;;;;;;3.20;1.30;;;26.30;87.60;;;;;;5092596;28;20043;-73
2021/11/06 06:55:22;;;;;;;4.63;0.65;;;26.30;87.70;;;;;;5085284;28;20052;-76
2021/11/06 06:57:49;;;;;;;4.65;1.52;;;26.40;87.50;;;;;;5085877;28;20024;-75
2021/11/06 07:00:17;;;;;;;5.10;0.45;;;26.50;87.70;;;;;;5089509;28;20025;-76
2021/11/06 07:02:45;;;;;;;2.20;0.55;;;26.50;87.50;;;;;;5087420;28;20048;-77
2021/11/06 07:05:12;;;;;;;4.68;0.63;;;26.40;87.90;;;;;;5081768;28;20046;-75
2021/11/06 07:07:40;;;;;;;4.03;0.82;;;26.30;88.30;;;;;;5090402;28;20040;-73
2021/11/06 07:10:08;;;;;;;6.28;0.98;;;26.20;88.50;;;;;;5089658;28;20055;-71
2021/11/06 07:12:35;;;;;;;2.28;0.45;;;26.10;88.70;;;;;;5091182;28;20437;-72
2021/11/06 07:15:03;;;;;;;4.03;0.50;;;26.00;88.80;;;;;;5092535;28;20028;-72
2021/11/06 07:17:31;;;;;;;5.05;0.65;;;25.80;89.30;;;;;;5081026;28;20032;-72
2021/11/06 07:19:58;;;;;;;4.45;0.73;;;25.70;89.90;;;;;;5090463;28;20031;-71
2021/11/06 07:22:26;;;;;;;5.80;0.65;;;25.70;90.00;;;;;;5086073;28;20577;-72
2021/11/06 07:24:53;;;;;;;4.95;0.50;;;25.60;90.00;;;;;;5092292;28;20424;-72
2021/11/06 07:27:21;;;;;;;2.67;0.70;;;25.50;90.20;;;;;;5083624;28;20031;-72
2021/11/06 07:29:48;;;;;;;4.25;0.63;;;25.40;90.50;;;;;;5086703;28;20062;-70
2021/11/06 07:32:15;;;;;;;2.88;0.38;;;25.10;90.70;;;;;;5059590;28;20032;-71
2021/11/06 07:34:43;;;;;;;5.35;1.17;;;24.90;91.10;;;;;;5090551;28;20088;-74
2021/11/06 07:37:10;;;;;;;4.25;0.98;;;24.90;91.40;;;;;;5082522;28;20024;-74
2021/11/06 07:39:38;;;;;;;1.90;0.35;;;24.80;91.50;;;;;;5082771;28;20087;-74
2021/11/06 07:42:05;;;;;;;5.38;0.70;;;24.80;91.60;;;;;;5086008;28;20542;-75
2021/11/06 07:44:33;;;;;;;2.00;0.30;;;24.70;91.80;;;;;;5092370;28;20107;-75
2021/11/06 07:47:00;;;;;;;3.22;0.43;;;24.70;92.00;;;;;;5089243;28;20046;-75
2021/11/06 07:49:28;;;;;;;1.73;0.60;;;24.70;92.30;;;;;;5090274;28;20047;-74
2021/11/06 07:51:59;;;;;;;8.07;1.45;;;24.60;92.30;;;;;;5087754;28;20028;-73
2021/11/06 07:54:28;;;;;;;6.72;2.03;;;24.40;92.60;;;;;;5085049;28;20028;-74
2021/11/06 07:56:56;;;;;;;6.88;1.83;;;24.40;92.80;;;;;;5076817;28;20358;-74
2021/11/06 07:59:23;;;;;;;2.90;0.95;;;24.30;92.90;;;;;;5086834;28;20063;-74
2021/11/06 08:01:53;;;;;;;4.53;0.90;;;24.30;93.10;;;;;;5081612;28;20024;-74
2021/11/06 08:04:20;;;;;;;2.30;0.60;;;24.10;93.30;;;;;;5093016;28;20016;-73
2021/11/06 08:06:48;;;;;;;1.65;0.45;;;24.10;93.80;;;;;;5061185;28;20028;-75
2021/11/06 08:09:16;;;;;;;5.68;1.58;;;24.00;93.70;;;;;;5082654;28;20029;-74
2021/11/06 08:11:43;;;;;;;1.85;0.65;;;24.10;93.70;;;;;;5080438;28;20055;-74
2021/11/06 08:14:10;;;;;;;1.88;0.55;;;24.10;93.70;;;;;;5082874;28;20028;-74
2021/11/06 08:16:38;;;;;;;3.42;0.65;;;23.90;94.10;;;;;;5085693;28;20024;-75
2021/11/06 08:19:05;;;;;;;6.40;0.68;;;23.70;94.50;;;;;;5089930;28;20035;-73
2021/11/06 08:21:33;;;;;;;2.63;0.50;;;23.60;94.70;;;;;;5090108;28;20104;-74
2021/11/06 08:24:00;;;;;;;1.98;0.40;;;23.50;95.10;;;;;;5083339;28;20044;-73
2021/11/06 08:26:28;;;;;;;3.75;1.17;;;23.50;95.20;;;;;;5079302;28;20036;-72
2021/11/06 08:28:56;;;;;;;3.72;0.70;;;23.50;95.30;;;;;;5078687;28;20025;-73
2021/11/06 08:31:23;;;;;;;3.42;0.55;;;23.60;95.40;;;;;;5072758;28;20036;-73
2021/11/06 08:33:51;;;;;;;5.53;0.75;;;23.50;95.60;;;;;;5081639;28;20040;-72
2021/11/06 08:36:18;;;;;;;6.32;1.85;;;23.30;95.80;;;;;;5077302;28;20024;-72
2021/11/06 08:38:45;;;;;;;3.35;1.15;;;23.30;95.90;;;;;;5080598;28;20538;-72
2021/11/06 08:41:13;;;;;;;3.25;1.13;;;23.30;96.00;;;;;;5088700;28;20622;-73
2021/11/06 08:43:40;;;;;;;5.65;1.02;;;23.20;96.40;;;;;;5087975;28;20431;-73
2021/11/06 08:46:08;;;;;;;3.60;1.00;;;23.10;96.50;;;;;;5092047;28;20052;-72
2021/11/06 08:48:35;;;;;;;4.68;1.10;;;23.10;96.90;;;;;;5086461;28;20034;-73
2021/11/06 08:51:03;;;;;;;1.88;0.50;;;23.10;96.80;;;;;;5083013;28;20020;-73
2021/11/06 08:53:31;;;;;;;4.05;1.30;;;23.10;97.10;;;;;;5092713;28;20028;-72
2021/11/06 08:55:59;;;;;;;6.10;1.17;;;23.10;97.20;;;;;;5092353;28;20020;-72
2021/11/06 08:58:27;;;;;;;5.03;1.02;;;23.10;97.60;;;;;;5090733;28;20453;-71
2021/11/06 09:00:55;;;;;;;3.03;0.80;;;23.10;97.30;;;;;;5090076;28;20030;-72
2021/11/06 09:03:25;;;;;;;2.08;0.70;;;23.10;97.60;;;;;;5081165;28;20032;-73
2021/11/06 09:05:54;;;;;;;3.47;0.50;;;23.00;97.70;;;;;;5091969;28;20023;-71
2021/11/06 09:08:25;;;;;;;6.38;1.65;;;23.00;97.80;;;;;;5091367;28;20435;-70
2021/11/06 09:10:55;;;;;;;4.78;1.60;;;22.90;98.00;;;;;;5092344;28;20016;-71
2021/11/06 09:13:24;;;;;;;2.88;0.75;;;22.90;98.30;;;;;;5091645;28;20399;-72
2021/11/06 09:15:51;;;;;;;3.22;1.10;;;22.90;98.40;;;;;;5092712;28;20133;-71
2021/11/06 09:18:19;;;;;;;4.93;0.50;;;23.10;98.20;;;;;;5092916;28;20028;-73
2021/11/06 09:20:46;;;;;;;2.42;0.82;;;23.10;98.30;;;;;;5092094;28;20487;-71
2021/11/06 09:23:14;;;;;;;1.52;1.42;;;23.10;98.70;;;;;;5093605;28;20016;-73
2021/11/06 09:25:41;;;;;;;6.72;0.98;;;23.00;98.80;;;;;;5075309;28;20320;-75
2021/11/06 09:28:08;;;;;;;1.98;0.50;;;23.00;98.70;;;;;;5087332;28;20051;-76
2021/11/06 09:30:36;;;;;;;2.63;1.02;;;23.00;98.70;;;;;;5090602;28;20020;-72
2021/11/06 09:33:03;;;;;;;4.85;0.88;;;23.00;98.80;;;;;;5088030;28;20376;-72
2021/11/06 09:35:31;;;;;;;1.42;1.33;;;22.90;98.90;;;;;;5078026;28;20020;-73
2021/11/06 09:37:59;;;;;;;1.90;0.60;;;22.90;98.70;;;;;;5068853;28;20080;-73
2021/11/06 09:40:26;;;;;;;4.72;1.13;;;22.90;98.90;;;;;;5092554;28;20136;-74
2021/11/06 09:42:54;;;;;;;5.03;0.65;;;22.90;99.20;;;;;;5093649;28;20035;-73
2021/11/06 09:45:22;;;;;;;1.92;0.52;;;22.80;99.30;;;;;;5088338;28;20076;-76
2021/11/06 09:47:49;;;;;;;3.10;1.00;;;22.80;99.30;;;;;;5087674;28;20023;-74
2021/11/06 09:50:18;;;;;;;3.72;1.10;;;22.80;99.60;;;;;;5079860;28;20028;-73
2021/11/06 09:52:52;;;;;;;2.58;1.17;;;22.70;99.80;;;;;;5091094;28;20514;-73
2021/11/06 09:55:22;;;;;;;4.20;0.82;;;22.70;99.90;;;;;;5081324;28;20040;-74
2021/11/06 09:57:50;;;;;;;5.60;0.73;;;22.70;99.90;;;;;;5090272;28;20024;-74
2021/11/06 10:00:20;;;;;;;2.20;0.90;;;22.50;99.90;;;;;;5091768;28;20060;-74
2021/11/06 10:02:50;;;;;;;3.13;0.80;;;22.50;99.90;;;;;;5081005;28;20032;-73
2021/11/06 10:05:17;;;;;;;3.65;1.08;;;22.40;99.90;;;;;;5073650;28;20032;-74
2021/11/06 10:07:45;;;;;;;2.35;0.65;;;22.40;99.90;;;;;;5074182;28;20035;-75
2021/11/06 10:10:14;;;;;;;4.30;0.50;;;22.40;99.90;;;;;;5081087;28;20035;-75
2021/11/06 10:12:57;;;;;;;4.70;0.93;;;22.40;99.90;;;;;;5091562;28;20024;-73
2021/11/06 10:15:26;;;;;;;7.18;1.58;;;22.30;99.90;;;;;;5086449;28;20020;-73
2021/11/06 10:17:54;;;;;;;3.78;1.23;;;22.40;99.90;;;;;;5089287;28;20467;-75
2021/11/06 10:20:33;;;;;;;2.05;0.47;;;22.30;99.90;;;;;;5083153;28;20644;-74
2021/11/06 10:23:05;;;;;;;3.35;0.68;;;22.30;99.90;;;;;;5081648;28;20513;-74
2021/11/06 10:25:34;;;;;;;3.92;0.47;;;22.30;99.90;;;;;;5085064;28;20031;-75
2021/11/06 10:28:03;;;;;;;2.95;0.80;;;22.30;99.90;;;;;;5085084;28;20060;-76
2021/11/06 10:30:35;;;;;;;6.75;0.65;;;22.30;99.90;;;;;;5076486;28;20115;-76
2021/11/06 10:33:16;;;;;;;2.65;0.85;;;22.30;99.90;;;;;;5091310;28;20044;-75
2021/11/06 10:35:47;;;;;;;2.25;0.63;;;22.30;99.90;;;;;;5088808;28;20031;-76
2021/11/06 10:38:17;;;;;;;6.90;1.20;;;22.20;99.90;;;;;;5093228;28;20028;-76
2021/11/06 10:40:50;;;;;;;3.55;0.63;;;22.20;99.90;;;;;;5089240;28;20107;-77
2021/11/06 10:43:20;;;;;;;5.35;0.70;;;22.20;99.90;;;;;;5082733;28;20036;-78
2021/11/06 10:45:56;;;;;;;5.03;1.05;;;22.10;99.90;;;;;;5083738;28;20020;-78
2021/11/06 10:48:28;;;;;;;2.90;0.52;;;22.10;99.90;;;;;;5085512;28;20955;-77
2021/11/06 10:51:05;;;;;;;5.85;1.00;;;22.00;99.90;;;;;;5086615;28;20119;-79
2021/11/06 10:53:36;;;;;;;3.50;0.90;;;22.00;99.90;;;;;;5089723;28;20068;-77
2021/11/06 10:56:28;;;;;;;4.18;0.88;;;21.90;99.90;;;;;;5089501;28;20047;-77
2021/11/06 10:59:07;;;;;;;3.72;0.80;;;21.90;99.90;;;;;;5092949;28;20077;-76
2021/11/06 11:01:38;;;;;;;1.63;0.50;;;21.90;99.90;;;;;;5082033;28;20413;-77
2021/11/06 11:04:11;;;;;;;2.65;1.20;;;21.90;99.90;;;;;;5072156;28;20023;-76
2021/11/06 11:06:44;;;;;;;4.32;0.60;;;21.90;99.90;;;;;;5089998;28;20027;-76
2021/11/06 11:09:21;;;;;;;3.85;0.60;;;21.80;99.90;;;;;;5073632;28;20040;-76
2021/11/06 11:11:53;;;;;;;7.30;0.95;;;21.80;99.90;;;;;;5085659;28;20028;-76
2021/11/06 11:14:23;;;;;;;2.92;0.85;;;21.70;99.90;;;;;;5084487;28;20034;-76
2021/11/06 11:16:55;;;;;;;5.45;1.27;;;21.70;99.90;;;;;;5086071;28;20035;-76
2021/11/06 11:19:44;;;;;;;4.43;1.05;;;21.60;99.90;;;;;;5083071;28;20065;-75
2021/11/06 11:22:26;;;;;;;5.20;1.15;;;21.70;99.90;;;;;;5083878;28;20028;-76
2021/11/06 11:24:54;;;;;;;6.90;1.08;;;21.70;99.90;;;;;;5083241;28;20780;-78
2021/11/06 11:27:22;;;;;;;9.63;1.90;;;21.70;99.90;;;;;;5069739;28;20107;-77
2021/11/06 11:29:49;;;;;;;7.03;1.52;;;21.60;99.90;;;;;;5082206;28;20051;-75
2021/11/06 11:32:17;;;;;;;7.75;1.25;;;21.70;99.90;;;;;;5090106;28;20126;-75
2021/11/06 11:34:45;;;;;;;5.75;2.05;;;21.60;99.90;;;;;;5083296;28;20424;-77
2021/11/06 11:37:14;;;;;;;8.35;1.83;;;21.50;99.90;;;;;;5082377;28;20070;-75
2021/11/06 11:39:45;;;;;;;6.45;0.90;;;21.40;99.90;;;;;;5088794;28;20024;-75
2021/11/06 11:42:39;;;;;;;8.52;1.20;;;21.30;99.90;;;;;;5083839;28;20115;-78
2021/11/06 11:45:27;;;;;;;3.30;1.67;;;21.30;99.90;;;;;;5080215;28;20043;-77
2021/11/06 11:48:11;;;;;;;9.20;1.40;;;21.20;99.90;;;;;;5096694;28;20043;-77
2021/11/06 11:50:41;;;;;;;7.03;1.52;;;21.10;99.90;;;;;;5083159;28;20102;-74
2021/11/06 11:53:23;;;;;;;8.80;1.98;;;21.00;99.90;;;;;;5089437;28;20433;-76
2021/11/06 11:55:51;;;;;;;7.68;1.33;;;20.90;99.90;;;;;;5088734;28;20048;-76
2021/11/06 11:58:34;;;;;;;7.38;2.25;;;20.90;99.90;;;;;;5074653;28;20107;-74
2021/11/06 12:01:02;;;;;;;8.27;1.40;;;20.80;99.90;;;;;;5085849;28;20251;-76
2021/11/06 12:03:39;;;;;;;6.50;1.23;;;20.80;99.90;;;;;;5079839;28;20141;-77
2021/11/06 12:06:39;;;;;;;5.78;2.28;;;20.70;99.90;;;;;;5091293;28;20482;-76
2021/11/06 12:09:15;;;;;;;3.67;1.23;;;20.70;99.90;;;;;;5077594;28;20038;-77
2021/11/06 12:12:01;;;;;;;3.05;1.10;;;20.70;99.90;;;;;;5082156;28;20028;-75
2021/11/06 12:14:42;;;;;;;3.38;0.70;;;20.70;99.90;;;;;;5081597;28;20031;-77
2021/11/06 12:17:10;;;;;;;6.40;1.27;;;20.70;99.90;;;;;;5087106;28;20169;-76
2021/11/06 12:19:44;;;;;;;3.63;1.35;;;20.70;99.90;;;;;;5091903;28;20360;-77
2021/11/06 12:22:27;;;;;;;7.95;1.15;;;20.70;99.90;;;;;;5077337;28;20387;-75
2021/11/06 12:25:17;;;;;;;6.20;0.98;;;20.70;99.90;;;;;;5081484;28;20432;-77
2021/11/06 12:27:57;;;;;;;4.90;1.42;;;20.70;99.90;;;;;;5092451;28;20399;-81
2021/11/06 12:30:37;;;;;;;5.50;1.70;;;20.70;99.90;;;;;;5078304;28;20032;-75
2021/11/06 12:33:07;;;;;;;4.70;1.55;;;20.70;99.90;;;;;;5081939;28;20055;-75
2021/11/06 12:35:34;;;;;;;6.97;1.00;;;20.70;99.90;;;;;;5095486;28;20028;-75
2021/11/06 12:38:08;;;;;;;5.60;1.23;;;20.70;99.90;;;;;;5096345;28;20028;-78
2021/11/06 12:40:49;;;;;;;8.15;1.25;;;20.70;99.90;;;;;;5061193;28;20027;-74
2021/11/06 12:43:26;;;;;;;3.53;0.75;;;20.60;99.90;;;;;;5081873;28;20097;-76
2021/11/06 12:46:27;;;;;;;7.47;1.20;;;20.60;99.90;;;;;;5077236;28;20043;-76
2021/11/06 12:49:04;;;;;;;9.43;1.25;;;20.60;99.90;;;;;;5066803;28;20431;-77
2021/11/06 12:51:43;;;;;;;3.33;1.00;;;20.60;99.90;;;;;;5095307;28;20040;-76
2021/11/06 12:54:13;;;;;;;8.20;1.00;;;20.50;99.90;;;;;;5081188;28;20024;-75
2021/11/06 12:56:51;;;;;;;1.75;1.20;;;20.50;99.90;;;;;;5087772;28;20028;-75
2021/11/06 12:59:19;;;;;;;3.80;1.00;;;20.50;99.90;;;;;;5092168;28;20032;-76